Time,TemperatureF,DewpointF,PressureIn,WindDirection,WindDirectionDegrees,WindSpeedMPH,WindSpeedGustMPH,Humidity,HourlyPrecipIn,Conditions,Clouds,dailyrainin,SoftwareType,DateUTC
2013-08-19 00:01:00,52.2,46.8,30.19,North,7,0.0,0.0,82,0.00,,CLR,0.00,VWS V14.01,2013-08-19 04:01:00,
2013-08-19 00:06:00,52.0,47.0,30.19,North,7,0.0,0.0,83,0.00,,CLR,0.00,VWS V14.01,2013-08-19 04:06:00,
2013-08-19 00:11:00,52.0,47.0,30.19,North,7,0.0,0.0,83,0.00,,CLR,0.00,VWS V14.01,2013-08-19 04:11:00,
2013-08-19 00:16:00,52.0,47.0,30.19,North,7,0.0,0.0,83,0.00,,CLR,0.00,VWS V14.01,2013-08-19 04:16:00,
2013-08-19 00:21:00,51.6,47.0,30.19,North,7,0.0,0.0,84,0.00,,CLR,0.00,VWS V14.01,2013-08-19 04:21:00,
2013-08-19 00:26:00,51.6,47.0,30.19,North,7,0.0,0.0,84,0.00,,CLR,0.00,VWS V14.01,2013-08-19 04:26:00,
2013-08-19 00:31:00,51.6,47.0,30.19,North,7,0.0,0.0,84,0.00,,CLR,0.00,VWS V14.01,2013-08-19 04:31:00,
2013-08-19 00:36:00,51.4,46.8,30.19,North,7,0.0,0.0,84,0.00,,CLR,0.00,VWS V14.01,2013-08-19 04:36:00,
2013-08-19 00:41:00,51.4,46.8,30.19,North,7,0.0,0.0,84,0.00,,,0.00,VWS V14.01,2013-08-19 04:41:00,
2013-08-19 00:47:00,51.4,46.8,30.19,North,7,0.0,0.0,84,0.00,,,0.00,VWS V14.01,2013-08-19 04:47:00,
2013-08-19 00:52:00,51.4,46.8,30.19,North,7,0.0,0.0,84,0.00,,,0.00,VWS V14.01,2013-08-19 04:52:00,
2013-08-19 00:57:00,51.4,46.8,30.19,North,7,0.0,0.0,84,0.00,,,0.00,VWS V14.01,2013-08-19 04:57:00,
2013-08-19 01:02:00,51.4,46.8,30.19,North,7,0.0,0.0,84,0.00,,,0.00,VWS V14.01,2013-08-19 05:02:00,
2013-08-19 01:07:00,51.4,46.8,30.19,North,7,0.0,0.0,84,0.00,,,0.00,VWS V14.01,2013-08-19 05:07:00,
2013-08-19 01:12:00,51.4,46.8,30.19,North,7,0.0,0.0,84,0.00,,,0.00,VWS V14.01,2013-08-19 05:12:00,
2013-08-19 01:17:00,50.5,46.2,30.19,North,7,0.0,0.0,85,0.00,,,0.00,VWS V14.01,2013-08-19 05:17:00,
2013-08-19 01:22:00,50.5,46.2,30.19,North,7,0.0,0.0,85,0.00,,,0.00,VWS V14.01,2013-08-19 05:22:00,
2013-08-19 01:27:00,50.4,46.0,30.19,North,7,0.0,0.0,85,0.00,,,0.00,VWS V14.01,2013-08-19 05:27:00,
2013-08-19 01:32:00,50.2,45.8,30.19,North,7,0.0,0.0,85,0.00,,,0.00,VWS V14.01,2013-08-19 05:32:00,
2013-08-19 01:37:00,50.2,45.8,30.19,North,7,0.0,0.0,85,0.00,,,0.00,VWS V14.01,2013-08-19 05:37:00,
2013-08-19 01:42:00,50.2,45.8,30.19,North,7,0.0,0.0,85,0.00,,,0.00,VWS V14.01,2013-08-19 05:42:00,
2013-08-19 01:47:00,50.2,45.8,30.19,North,7,0.0,0.0,85,0.00,,,0.00,VWS V14.01,2013-08-19 05:47:00,
2013-08-19 01:52:00,49.8,45.8,30.19,North,7,0.0,0.0,86,0.00,,,0.00,VWS V14.01,2013-08-19 05:52:00,
2013-08-19 01:57:00,49.8,45.8,30.19,North,7,0.0,0.0,86,0.00,,,0.00,VWS V14.01,2013-08-19 05:57:00,
2013-08-19 02:02:00,49.8,45.8,30.19,North,7,0.0,0.0,86,0.00,,,0.00,VWS V14.01,2013-08-19 06:02:00,
2013-08-19 02:07:00,49.8,45.8,30.19,North,7,0.0,0.0,86,0.00,,,0.00,VWS V14.01,2013-08-19 06:07:00,
2013-08-19 02:12:00,49.8,45.8,30.19,North,7,0.0,0.0,86,0.00,,,0.00,VWS V14.01,2013-08-19 06:12:00,
2013-08-19 02:17:00,49.6,45.6,30.19,North,7,0.0,0.0,86,0.00,,,0.00,VWS V14.01,2013-08-19 06:17:00,
2013-08-19 02:22:00,49.6,45.6,30.19,North,7,0.0,0.0,86,0.00,,,0.00,VWS V14.01,2013-08-19 06:22:00,
2013-08-19 02:27:00,49.5,45.8,30.19,North,7,0.0,0.0,87,0.00,,,0.00,VWS V14.01,2013-08-19 06:27:00,
2013-08-19 02:32:00,49.5,45.8,30.19,North,7,0.0,0.0,87,0.00,,,0.00,VWS V14.01,2013-08-19 06:32:00,
2013-08-19 02:37:00,49.5,45.8,30.19,North,7,0.0,0.0,87,0.00,,,0.00,VWS V14.01,2013-08-19 06:37:00,
2013-08-19 02:42:00,49.3,45.6,30.19,North,7,0.0,0.0,87,0.00,,,0.00,VWS V14.01,2013-08-19 06:42:00,
2013-08-19 02:47:00,49.3,45.6,30.19,North,7,0.0,0.0,87,0.00,,,0.00,VWS V14.01,2013-08-19 06:47:00,
2013-08-19 02:52:00,49.1,45.4,30.19,North,7,0.0,0.0,87,0.00,,SCT002,0.00,VWS V14.01,2013-08-19 06:52:00,
2013-08-19 02:57:00,49.1,45.4,30.19,North,7,0.0,0.0,87,0.00,,SCT002,0.00,VWS V14.01,2013-08-19 06:57:00,
2013-08-19 03:03:00,49.1,45.4,30.19,North,7,0.0,0.0,87,0.00,,SCT002,0.00,VWS V14.01,2013-08-19 07:03:00,
2013-08-19 03:08:00,49.1,45.4,30.19,North,7,0.0,0.0,87,0.00,,SCT002,0.00,VWS V14.01,2013-08-19 07:08:00,
2013-08-19 03:13:00,49.1,45.4,30.19,North,7,0.0,0.0,87,0.00,,SCT002,0.00,VWS V14.01,2013-08-19 07:13:00,
2013-08-19 03:18:00,49.1,45.4,30.19,North,7,0.0,0.0,87,0.00,,SCT002,0.00,VWS V14.01,2013-08-19 07:18:00,
2013-08-19 03:23:00,49.1,45.4,30.19,North,7,0.0,0.0,87,0.00,,SCT002,0.00,VWS V14.01,2013-08-19 07:23:00,
2013-08-19 03:28:00,49.1,45.4,30.19,North,7,0.0,0.0,87,0.00,,SCT002,0.00,VWS V14.01,2013-08-19 07:28:00,
2013-08-19 03:33:00,49.1,45.4,30.19,North,7,0.0,0.0,87,0.00,,SCT002,0.00,VWS V14.01,2013-08-19 07:33:00,
2013-08-19 03:38:00,48.7,45.3,30.19,North,7,0.0,0.0,88,0.00,,SCT002,0.00,VWS V14.01,2013-08-19 07:38:00,
2013-08-19 03:43:00,48.7,45.3,30.19,North,7,0.0,0.0,88,0.00,,,0.00,VWS V14.01,2013-08-19 07:43:00,
2013-08-19 03:48:00,48.7,45.3,30.19,North,7,0.0,0.0,88,0.00,,,0.00,VWS V14.01,2013-08-19 07:48:00,
2013-08-19 03:53:00,48.7,45.3,30.19,North,7,0.0,0.0,88,0.00,,,0.00,VWS V14.01,2013-08-19 07:53:00,
2013-08-19 03:58:00,48.7,45.3,30.19,North,7,0.0,0.0,88,0.00,,,0.00,VWS V14.01,2013-08-19 07:58:00,
2013-08-19 04:03:00,48.7,45.7,30.19,North,7,0.0,0.0,89,0.00,,,0.00,VWS V14.01,2013-08-19 08:03:00,
2013-08-19 04:08:00,48.7,45.7,30.19,North,7,0.0,0.0,89,0.00,,,0.00,VWS V14.01,2013-08-19 08:08:00,
2013-08-19 04:13:00,48.7,45.7,30.16,North,7,0.0,0.0,89,0.00,,,0.00,VWS V14.01,2013-08-19 08:13:00,
2013-08-19 04:18:00,48.7,45.7,30.16,North,7,0.0,0.0,89,0.00,,,0.00,VWS V14.01,2013-08-19 08:18:00,
2013-08-19 04:23:00,48.9,45.8,30.16,North,7,0.0,0.0,89,0.00,,,0.00,VWS V14.01,2013-08-19 08:23:00,
2013-08-19 04:28:00,48.9,45.8,30.16,North,7,0.0,0.0,89,0.00,,,0.00,VWS V14.01,2013-08-19 08:28:00,
2013-08-19 04:33:00,49.1,46.0,30.16,North,7,0.0,0.0,89,0.00,,,0.00,VWS V14.01,2013-08-19 08:33:00,
2013-08-19 04:38:00,49.1,46.3,30.16,North,7,0.0,0.0,90,0.00,,,0.00,VWS V14.01,2013-08-19 08:38:00,
2013-08-19 04:43:00,49.1,46.3,30.16,North,7,0.0,0.0,90,0.00,,CLR,0.00,VWS V14.01,2013-08-19 08:43:00,
2013-08-19 04:48:00,49.1,46.3,30.16,North,7,0.0,0.0,90,0.00,,CLR,0.00,VWS V14.01,2013-08-19 08:48:00,
2013-08-19 04:53:00,49.1,46.3,30.16,North,7,0.0,0.0,90,0.00,,CLR,0.00,VWS V14.01,2013-08-19 08:53:00,
2013-08-19 04:58:00,49.3,46.5,30.16,North,7,0.0,0.0,90,0.00,,CLR,0.00,VWS V14.01,2013-08-19 08:58:00,
2013-08-19 05:03:00,49.3,46.5,30.16,North,7,0.0,0.0,90,0.00,,CLR,0.00,VWS V14.01,2013-08-19 09:03:00,
2013-08-19 05:08:00,49.3,46.5,30.16,North,7,0.0,0.0,90,0.00,,CLR,0.00,VWS V14.01,2013-08-19 09:08:00,
2013-08-19 05:13:00,49.3,46.5,30.16,North,7,0.0,0.0,90,0.00,,CLR,0.00,VWS V14.01,2013-08-19 09:13:00,
2013-08-19 05:18:00,49.3,46.5,30.16,North,7,0.0,0.0,90,0.00,,CLR,0.00,VWS V14.01,2013-08-19 09:18:00,
2013-08-19 05:23:00,49.3,46.5,30.16,North,7,0.0,0.0,90,0.00,,CLR,0.00,VWS V14.01,2013-08-19 09:23:00,
2013-08-19 05:28:00,49.3,46.5,30.16,North,7,0.0,0.0,90,0.00,,CLR,0.00,VWS V14.01,2013-08-19 09:28:00,
2013-08-19 05:33:00,49.3,46.5,30.16,North,7,0.0,0.0,90,0.00,,CLR,0.00,VWS V14.01,2013-08-19 09:33:00,
2013-08-19 05:38:00,49.1,46.3,30.16,North,7,0.0,0.0,90,0.00,,CLR,0.00,VWS V14.01,2013-08-19 09:38:00,
2013-08-19 05:43:00,49.1,46.3,30.16,North,7,0.0,0.0,90,0.00,,FEW002,0.00,VWS V14.01,2013-08-19 09:43:00,
2013-08-19 05:49:00,49.1,46.3,30.16,North,7,0.0,0.0,90,0.00,,FEW002,0.00,VWS V14.01,2013-08-19 09:49:00,
2013-08-19 05:54:00,49.1,46.3,30.16,North,7,0.0,0.0,90,0.00,,FEW002,0.00,VWS V14.01,2013-08-19 09:54:00,
2013-08-19 05:59:00,49.1,46.3,30.16,North,7,0.0,0.0,90,0.00,,FEW002,0.00,VWS V14.01,2013-08-19 09:59:00,
2013-08-19 06:04:00,49.1,46.3,30.16,North,7,0.0,0.0,90,0.00,,FEW002,0.00,VWS V14.01,2013-08-19 10:04:00,
2013-08-19 06:09:00,48.7,46.2,30.16,North,7,0.0,0.0,91,0.00,,FEW002,0.00,VWS V14.01,2013-08-19 10:09:00,
2013-08-19 06:14:00,48.7,46.2,30.16,North,7,0.0,0.0,91,0.00,,FEW002,0.00,VWS V14.01,2013-08-19 10:14:00,
2013-08-19 06:19:00,48.7,46.2,30.16,North,7,0.0,0.0,91,0.00,,FEW002,0.00,VWS V14.01,2013-08-19 10:19:00,
2013-08-19 06:24:00,48.7,46.2,30.16,North,7,0.0,0.0,91,0.00,,FEW002,0.00,VWS V14.01,2013-08-19 10:24:00,
2013-08-19 06:29:00,48.7,46.2,30.16,North,7,0.0,0.0,91,0.00,,FEW002,0.00,VWS V14.01,2013-08-19 10:29:00,
2013-08-19 06:34:00,48.7,46.2,30.16,North,7,0.0,0.0,91,0.00,,FEW002,0.00,VWS V14.01,2013-08-19 10:34:00,
2013-08-19 06:39:00,48.7,46.2,30.16,North,7,0.0,0.0,91,0.00,,FEW002,0.00,VWS V14.01,2013-08-19 10:39:00,
2013-08-19 06:44:00,48.7,46.2,30.16,North,7,0.0,0.0,91,0.00,,CLR,0.00,VWS V14.01,2013-08-19 10:44:00,
2013-08-19 06:49:00,48.7,46.2,30.16,North,7,0.0,0.0,91,0.00,,CLR,0.00,VWS V14.01,2013-08-19 10:49:00,
2013-08-19 06:54:00,48.9,46.4,30.16,North,7,0.0,0.0,91,0.00,,CLR,0.00,VWS V14.01,2013-08-19 10:54:00,
2013-08-19 06:59:00,48.9,46.4,30.16,North,7,0.0,0.0,91,0.00,,CLR,0.00,VWS V14.01,2013-08-19 10:59:00,
2013-08-19 07:04:00,48.9,46.4,30.16,North,7,0.0,0.0,91,0.00,,CLR,0.00,VWS V14.01,2013-08-19 11:04:00,
2013-08-19 07:09:00,48.9,46.4,30.16,North,7,0.0,0.0,91,0.00,,CLR,0.00,VWS V14.01,2013-08-19 11:09:00,
2013-08-19 07:14:00,49.1,46.9,30.16,North,7,0.0,0.0,92,0.00,,CLR,0.00,VWS V14.01,2013-08-19 11:14:00,
2013-08-19 07:19:00,49.1,46.9,30.16,North,7,0.0,0.0,92,0.00,,CLR,0.00,VWS V14.01,2013-08-19 11:19:00,
2013-08-19 07:24:00,49.1,46.9,30.16,North,7,0.0,0.0,92,0.00,,CLR,0.00,VWS V14.01,2013-08-19 11:24:00,
2013-08-19 07:29:00,50.0,47.8,30.16,North,7,0.0,0.0,92,0.00,,CLR,0.00,VWS V14.01,2013-08-19 11:29:00,
2013-08-19 07:34:00,50.0,47.8,30.16,North,7,0.0,0.0,92,0.00,,CLR,0.00,VWS V14.01,2013-08-19 11:34:00,
2013-08-19 07:39:00,50.0,47.8,30.16,North,7,0.0,0.0,92,0.00,,CLR,0.00,VWS V14.01,2013-08-19 11:39:00,
2013-08-19 07:44:00,50.5,48.3,30.16,North,7,0.0,0.0,92,0.00,,CLR,0.00,VWS V14.01,2013-08-19 11:44:00,
2013-08-19 07:49:00,50.9,48.7,30.16,North,7,0.0,0.0,92,0.00,,CLR,0.00,VWS V14.01,2013-08-19 11:49:00,
2013-08-19 07:54:00,50.9,48.7,30.16,North,7,0.0,0.0,92,0.00,,CLR,0.00,VWS V14.01,2013-08-19 11:54:00,
2013-08-19 07:59:00,50.9,48.7,30.16,North,7,0.0,0.0,92,0.00,,CLR,0.00,VWS V14.01,2013-08-19 11:59:00,
2013-08-19 08:04:00,51.8,49.5,30.16,North,7,0.0,0.0,92,0.00,,CLR,0.00,VWS V14.01,2013-08-19 12:04:00,
2013-08-19 08:09:00,52.7,50.5,30.16,North,7,0.0,0.0,92,0.00,,CLR,0.00,VWS V14.01,2013-08-19 12:09:00,
2013-08-19 08:14:00,52.7,50.5,30.16,North,7,0.0,0.0,92,0.00,,CLR,0.00,VWS V14.01,2013-08-19 12:14:00,
2013-08-19 08:19:00,52.7,50.5,30.16,North,7,0.0,0.0,92,0.00,,CLR,0.00,VWS V14.01,2013-08-19 12:19:00,
2013-08-19 08:24:00,52.7,50.5,30.16,North,7,0.0,0.0,92,0.00,,CLR,0.00,VWS V14.01,2013-08-19 12:24:00,
2013-08-19 08:30:00,52.7,50.5,30.16,North,7,0.0,0.0,92,0.00,,CLR,0.00,VWS V14.01,2013-08-19 12:30:00,
2013-08-19 08:35:00,52.7,50.5,30.16,North,7,0.0,0.0,92,0.00,,CLR,0.00,VWS V14.01,2013-08-19 12:35:00,
2013-08-19 08:40:00,55.6,53.3,30.16,North,7,0.0,0.0,92,0.00,,CLR,0.00,VWS V14.01,2013-08-19 12:40:00,
2013-08-19 08:45:00,56.7,54.7,30.16,North,7,0.0,0.0,93,0.00,,CLR,0.00,VWS V14.01,2013-08-19 12:45:00,
2013-08-19 08:50:00,56.7,54.7,30.16,North,7,0.0,0.0,93,0.00,,CLR,0.00,VWS V14.01,2013-08-19 12:50:00,
2013-08-19 08:55:00,58.8,56.8,30.16,North,7,0.0,0.0,93,0.00,,CLR,0.00,VWS V14.01,2013-08-19 12:55:00,
2013-08-19 09:00:00,58.8,56.8,30.16,North,7,0.0,0.0,93,0.00,,CLR,0.00,VWS V14.01,2013-08-19 13:00:00,
2013-08-19 09:05:00,58.8,56.8,30.16,North,7,0.0,0.0,93,0.00,,CLR,0.00,VWS V14.01,2013-08-19 13:05:00,
2013-08-19 09:10:00,58.8,56.8,30.16,South,171,0.0,0.0,93,0.00,,CLR,0.00,VWS V14.01,2013-08-19 13:10:00,
2013-08-19 09:15:00,58.8,56.8,30.16,SSE,165,0.0,0.0,93,0.00,,CLR,0.00,VWS V14.01,2013-08-19 13:15:00,
2013-08-19 09:20:00,62.2,59.9,30.16,SSE,165,0.0,0.0,92,0.00,,CLR,0.00,VWS V14.01,2013-08-19 13:20:00,
2013-08-19 09:25:00,62.8,60.4,30.16,SSE,165,0.0,0.0,92,0.00,,CLR,0.00,VWS V14.01,2013-08-19 13:25:00,
2013-08-19 09:30:00,62.8,60.4,30.16,SSE,160,0.0,0.0,92,0.00,,CLR,0.00,VWS V14.01,2013-08-19 13:30:00,
2013-08-19 09:35:00,62.8,60.4,30.16,SSE,160,0.0,0.0,92,0.00,,CLR,0.00,VWS V14.01,2013-08-19 13:35:00,
2013-08-19 09:40:00,64.0,61.7,30.16,SSE,158,0.0,4.0,92,0.00,,CLR,0.00,VWS V14.01,2013-08-19 13:40:00,
2013-08-19 09:45:00,64.0,61.7,30.16,SSW,200,0.0,0.0,92,0.00,,CLR,0.00,VWS V14.01,2013-08-19 13:45:00,
2013-08-19 09:50:00,64.0,61.7,30.16,SSE,159,2.7,2.7,92,0.00,,CLR,0.00,VWS V14.01,2013-08-19 13:50:00,
2013-08-19 09:55:00,64.0,61.7,30.16,SSE,161,0.0,2.7,92,0.00,,CLR,0.00,VWS V14.01,2013-08-19 13:55:00,
2013-08-19 10:00:00,65.8,62.8,30.16,SSW,208,0.0,0.0,90,0.00,,CLR,0.00,VWS V14.01,2013-08-19 14:00:00,
2013-08-19 10:05:00,65.8,62.8,30.16,South,169,4.9,5.4,90,0.00,,CLR,0.00,VWS V14.01,2013-08-19 14:05:00,
2013-08-19 10:10:00,65.8,62.8,30.16,SSE,159,3.6,3.6,90,0.00,,CLR,0.00,VWS V14.01,2013-08-19 14:10:00,
2013-08-19 10:15:00,67.6,63.0,30.16,NNW,333,3.1,3.6,85,0.00,,CLR,0.00,VWS V14.01,2013-08-19 14:15:00,
2013-08-19 10:20:00,67.6,63.0,30.16,NW,322,0.0,0.0,85,0.00,,CLR,0.00,VWS V14.01,2013-08-19 14:20:00,
2013-08-19 10:25:00,67.6,63.0,30.16,North,357,2.2,5.8,85,0.00,,CLR,0.00,VWS V14.01,2013-08-19 14:25:00,
2013-08-19 10:30:00,69.1,57.3,30.13,SSE,154,3.6,3.6,66,0.00,,CLR,0.00,VWS V14.01,2013-08-19 14:30:00,
2013-08-19 10:35:00,70.0,55.5,30.13,South,177,4.0,4.0,60,0.00,,CLR,0.04,VWS V14.01,2013-08-19 14:35:00,
2013-08-19 10:40:00,70.3,56.7,30.16,South,183,3.6,3.6,62,0.00,,CLR,0.00,VWS V14.01,2013-08-19 14:40:00,
2013-08-19 10:45:00,70.3,56.7,30.16,South,172,0.0,3.6,62,0.00,,CLR,0.00,VWS V14.01,2013-08-19 14:45:00,
2013-08-19 10:50:00,72.3,54.2,30.16,SW,216,0.0,4.0,53,0.00,,CLR,0.00,VWS V14.01,2013-08-19 14:50:00,
2013-08-19 10:55:00,72.3,54.2,30.16,WNW,294,2.7,5.8,53,0.00,,CLR,0.00,VWS V14.01,2013-08-19 14:55:00,
2013-08-19 11:00:00,73.0,51.1,30.16,SSE,168,5.4,5.4,46,0.00,,CLR,0.00,VWS V14.01,2013-08-19 15:00:00,
2013-08-19 11:05:00,73.0,51.1,30.16,SSE,157,5.8,5.8,46,0.00,,CLR,0.00,VWS V14.01,2013-08-19 15:05:00,
2013-08-19 11:11:00,74.1,50.2,30.16,SW,220,3.6,3.6,43,0.00,,CLR,0.00,VWS V14.01,2013-08-19 15:11:00,
2013-08-19 11:16:00,74.5,49.9,30.16,SSW,195,4.0,8.1,42,0.00,,CLR,0.00,VWS V14.01,2013-08-19 15:16:00,
2013-08-19 11:21:00,74.5,49.9,30.16,SSE,153,4.9,4.9,42,0.00,,CLR,0.00,VWS V14.01,2013-08-19 15:21:00,
2013-08-19 11:26:00,74.5,49.9,30.16,NNW,346,0.0,6.3,42,0.00,,CLR,0.00,VWS V14.01,2013-08-19 15:26:00,
2013-08-19 11:31:00,74.5,49.9,30.16,SSW,209,0.0,0.0,42,0.00,,CLR,0.00,VWS V14.01,2013-08-19 15:31:00,
2013-08-19 11:36:00,75.9,47.1,30.16,SW,234,3.6,3.6,36,0.00,,CLR,0.00,VWS V14.01,2013-08-19 15:36:00,
2013-08-19 11:41:00,75.9,47.1,30.13,SSE,165,0.0,0.0,36,0.00,,CLR,0.00,VWS V14.01,2013-08-19 15:41:00,
2013-08-19 11:46:00,75.9,47.1,30.13,NNW,330,0.0,3.6,36,0.00,,CLR,0.04,VWS V14.01,2013-08-19 15:46:00,
2013-08-19 11:51:00,75.6,46.8,30.13,NNW,328,5.8,5.8,36,0.00,,CLR,0.00,VWS V14.01,2013-08-19 15:51:00,
2013-08-19 11:56:00,75.6,46.8,30.13,South,190,0.0,5.8,36,0.00,,CLR,0.00,VWS V14.01,2013-08-19 15:56:00,
2013-08-19 12:01:00,74.8,46.1,30.13,SSE,150,4.0,4.0,36,0.00,,CLR,0.00,VWS V14.01,2013-08-19 16:01:00,
2013-08-19 12:06:00,74.8,46.1,30.13,North,357,6.3,6.3,36,0.00,,CLR,0.00,VWS V14.01,2013-08-19 16:06:00,
2013-08-19 12:11:00,74.8,46.1,30.13,SSW,193,2.7,5.4,36,0.00,,CLR,0.00,VWS V14.01,2013-08-19 16:11:00,
2013-08-19 12:16:00,74.8,46.1,30.13,SSE,156,4.0,5.4,36,0.00,,CLR,0.00,VWS V14.01,2013-08-19 16:16:00,
2013-08-19 12:21:00,74.8,46.1,30.13,SSE,168,5.8,5.8,36,0.00,,CLR,0.00,VWS V14.01,2013-08-19 16:21:00,
2013-08-19 12:26:00,75.9,45.6,30.13,WSW,241,0.0,5.8,34,0.00,,CLR,0.00,VWS V14.01,2013-08-19 16:26:00,
2013-08-19 12:31:00,76.5,46.8,30.13,SSE,150,0.0,2.7,35,0.00,,CLR,0.00,VWS V14.01,2013-08-19 16:31:00,
2013-08-19 12:36:00,76.5,46.8,30.13,North,0,0.0,2.7,35,0.00,,CLR,0.00,VWS V14.01,2013-08-19 16:36:00,
2013-08-19 12:41:00,76.5,46.8,30.13,NNE,24,3.1,3.1,35,0.00,,FEW045,0.00,VWS V14.01,2013-08-19 16:41:00,
2013-08-19 12:46:00,76.5,46.8,30.13,South,174,5.8,5.8,35,0.00,,FEW045,0.00,VWS V14.01,2013-08-19 16:46:00,
2013-08-19 12:51:00,75.9,45.6,30.13,SSE,163,3.1,4.5,34,0.00,,FEW045,0.00,VWS V14.01,2013-08-19 16:51:00,
2013-08-19 12:56:00,76.1,45.7,30.13,SSE,156,5.4,5.4,34,0.00,,FEW045,0.00,VWS V14.01,2013-08-19 16:56:00,
2013-08-19 13:01:00,75.9,45.6,30.13,SSE,155,2.7,2.7,34,0.00,,FEW045,0.00,VWS V14.01,2013-08-19 17:01:00,
2013-08-19 13:06:00,75.9,45.6,30.13,South,184,2.2,8.3,34,0.00,,FEW045,0.00,VWS V14.01,2013-08-19 17:06:00,
2013-08-19 13:11:00,77.0,46.5,30.13,ENE,64,0.0,0.0,34,0.00,,FEW045,0.00,VWS V14.01,2013-08-19 17:11:00,
2013-08-19 13:16:00,77.0,46.5,30.13,WSW,239,3.6,3.6,34,0.00,,FEW045,0.00,VWS V14.01,2013-08-19 17:16:00,
2013-08-19 13:21:00,77.2,45.9,30.13,SW,231,2.7,2.7,33,0.00,,FEW045,0.00,VWS V14.01,2013-08-19 17:21:00,
2013-08-19 13:26:00,77.2,45.9,30.13,SSE,147,3.6,4.0,33,0.00,,FEW045,0.00,VWS V14.01,2013-08-19 17:26:00,
2013-08-19 13:31:00,77.2,45.9,30.13,WSW,237,0.0,3.1,33,0.00,,FEW045,0.00,VWS V14.01,2013-08-19 17:31:00,
2013-08-19 13:36:00,77.0,45.7,30.13,NW,307,4.0,4.0,33,0.00,,FEW045,0.00,VWS V14.01,2013-08-19 17:36:00,
2013-08-19 13:41:00,76.8,46.3,30.10,NW,306,3.6,3.6,34,0.00,,CLR,0.00,VWS V14.01,2013-08-19 17:41:00,
2013-08-19 13:46:00,77.0,45.7,30.10,South,169,3.6,3.6,33,0.00,,CLR,0.00,VWS V14.01,2013-08-19 17:46:00,
2013-08-19 13:51:00,77.0,45.7,30.10,SSE,165,2.7,3.1,33,0.00,,CLR,0.00,VWS V14.01,2013-08-19 17:51:00,
2013-08-19 13:56:00,76.5,45.2,30.13,South,173,3.1,5.4,33,0.00,,CLR,0.00,VWS V14.01,2013-08-19 17:56:00,
2013-08-19 14:01:00,76.6,47.0,30.13,SSE,159,0.0,3.6,35,0.00,,CLR,0.00,VWS V14.01,2013-08-19 18:01:00,
2013-08-19 14:06:00,76.8,47.1,30.13,SSE,153,0.0,3.6,35,0.00,,CLR,0.00,VWS V14.01,2013-08-19 18:06:00,
2013-08-19 14:11:00,76.6,46.2,30.13,South,176,4.9,4.9,34,0.00,,CLR,0.00,VWS V14.01,2013-08-19 18:11:00,
2013-08-19 14:16:00,76.5,46.0,30.13,WSW,258,0.0,4.9,34,0.00,,CLR,0.00,VWS V14.01,2013-08-19 18:16:00,
2013-08-19 14:21:00,76.5,46.0,30.13,NNE,22,5.4,5.4,34,0.00,,CLR,0.00,VWS V14.01,2013-08-19 18:21:00,
2013-08-19 14:26:00,76.5,46.0,30.10,West,266,0.0,5.4,34,0.00,,CLR,0.00,VWS V14.01,2013-08-19 18:26:00,
2013-08-19 14:31:00,76.6,46.2,30.10,WSW,251,0.0,0.0,34,0.00,,CLR,0.00,VWS V14.01,2013-08-19 18:31:00,
2013-08-19 14:36:00,76.8,46.3,30.10,SE,137,0.0,3.6,34,0.00,,CLR,0.00,VWS V14.01,2013-08-19 18:36:00,
2013-08-19 14:41:00,76.8,45.6,30.10,SSE,154,2.2,3.1,33,0.00,,CLR,0.00,VWS V14.01,2013-08-19 18:41:00,
2013-08-19 14:46:00,77.2,45.9,30.10,South,183,3.1,4.0,33,0.00,,CLR,0.00,VWS V14.01,2013-08-19 18:46:00,
2013-08-19 14:51:00,77.2,45.9,30.10,NNW,331,8.3,8.3,33,0.00,,CLR,0.00,VWS V14.01,2013-08-19 18:51:00,
2013-08-19 14:56:00,76.8,45.6,30.10,SSW,207,3.1,8.3,33,0.00,,CLR,0.00,VWS V14.01,2013-08-19 18:56:00,
2013-08-19 15:01:00,76.6,45.4,30.10,South,177,3.6,3.6,33,0.00,,CLR,0.00,VWS V14.01,2013-08-19 19:01:00,
2013-08-19 15:06:00,76.8,45.6,30.10,SSE,163,3.6,3.6,33,0.00,,CLR,0.00,VWS V14.01,2013-08-19 19:06:00,
2013-08-19 15:11:00,77.5,46.2,30.10,WNW,290,2.7,3.6,33,0.00,,CLR,0.00,VWS V14.01,2013-08-19 19:11:00,
2013-08-19 15:16:00,77.5,46.2,30.10,SSE,152,3.1,3.6,33,0.00,,CLR,0.00,VWS V14.01,2013-08-19 19:16:00,
2013-08-19 15:21:00,77.5,46.2,30.10,SE,139,2.7,2.7,33,0.00,,CLR,0.00,VWS V14.01,2013-08-19 19:21:00,
2013-08-19 15:26:00,77.7,46.3,30.10,South,178,2.7,8.1,33,0.00,,CLR,0.00,VWS V14.01,2013-08-19 19:26:00,
2013-08-19 15:31:00,77.9,45.7,30.10,SSE,166,2.7,2.7,32,0.00,,CLR,0.00,VWS V14.01,2013-08-19 19:31:00,
2013-08-19 15:36:00,77.7,45.5,30.10,SSW,204,0.0,2.7,32,0.00,,CLR,0.00,VWS V14.01,2013-08-19 19:36:00,
2013-08-19 15:41:00,77.7,45.5,30.10,SSW,208,0.0,3.6,32,0.00,,BKN050,0.00,VWS V14.01,2013-08-19 19:41:00,
2013-08-19 15:47:00,77.7,45.5,30.10,South,169,2.2,3.6,32,0.00,,BKN050,0.00,VWS V14.01,2013-08-19 19:47:00,
2013-08-19 15:52:00,77.5,45.4,30.10,NNW,328,4.0,4.0,32,0.00,,BKN050,0.00,VWS V14.01,2013-08-19 19:52:00,
2013-08-19 15:57:00,77.5,45.4,30.10,SW,220,2.2,5.4,32,0.00,,BKN050,0.00,VWS V14.01,2013-08-19 19:57:00,
2013-08-19 16:02:00,77.2,45.1,30.10,South,169,0.0,0.0,32,0.00,,BKN050,0.00,VWS V14.01,2013-08-19 20:02:00,
2013-08-19 16:07:00,77.0,45.7,30.10,South,169,0.0,0.0,33,0.00,,BKN050,0.00,VWS V14.01,2013-08-19 20:07:00,
2013-08-19 16:12:00,77.0,45.7,30.10,South,169,0.0,0.0,33,0.00,,BKN050,0.00,VWS V14.01,2013-08-19 20:12:00,
2013-08-19 16:17:00,76.5,45.2,30.10,SE,130,2.7,2.7,33,0.00,,BKN050,0.00,VWS V14.01,2013-08-19 20:17:00,
2013-08-19 16:22:00,75.9,44.8,30.10,SE,130,2.7,2.7,33,0.00,,BKN050,0.00,VWS V14.01,2013-08-19 20:22:00,
2013-08-19 16:27:00,75.9,44.8,30.10,SE,144,3.1,3.1,33,0.00,,BKN050,0.00,VWS V14.01,2013-08-19 20:27:00,
2013-08-19 16:32:00,75.4,45.1,30.10,SE,144,3.1,3.1,34,0.00,,BKN050,0.00,VWS V14.01,2013-08-19 20:32:00,
2013-08-19 16:37:00,75.2,44.9,30.10,SE,144,3.1,3.1,34,0.00,,BKN050,0.00,VWS V14.01,2013-08-19 20:37:00,
2013-08-19 16:42:00,75.0,45.5,30.10,SE,144,3.1,3.1,35,0.00,,CLR,0.00,VWS V14.01,2013-08-19 20:42:00,
2013-08-19 16:47:00,74.7,45.2,30.10,SE,144,3.1,3.1,35,0.00,,CLR,0.00,VWS V14.01,2013-08-19 20:47:00,
2013-08-19 16:52:00,74.5,45.1,30.10,SE,144,2.7,2.7,35,0.00,,CLR,0.00,VWS V14.01,2013-08-19 20:52:00,
2013-08-19 16:57:00,74.3,44.9,30.10,SE,144,2.7,2.7,35,0.00,,CLR,0.00,VWS V14.01,2013-08-19 20:57:00,
2013-08-19 17:02:00,74.5,45.8,30.10,SSW,201,0.0,0.0,36,0.00,,CLR,0.00,VWS V14.01,2013-08-19 21:02:00,
2013-08-19 17:07:00,74.5,45.8,30.10,SSW,201,0.0,0.0,36,0.00,,CLR,0.00,VWS V14.01,2013-08-19 21:07:00,
2013-08-19 17:12:00,74.3,45.7,30.10,NNW,346,2.7,2.7,36,0.00,,CLR,0.00,VWS V14.01,2013-08-19 21:12:00,
2013-08-19 17:17:00,74.1,45.5,30.10,NNW,346,2.7,2.7,36,0.00,,CLR,0.00,VWS V14.01,2013-08-19 21:17:00,
2013-08-19 17:22:00,73.9,45.3,30.10,NNW,346,2.7,2.7,36,0.00,,CLR,0.00,VWS V14.01,2013-08-19 21:22:00,
2013-08-19 17:27:00,73.9,45.3,30.10,NNW,346,2.7,2.7,36,0.00,,CLR,0.00,VWS V14.01,2013-08-19 21:27:00,
2013-08-19 17:32:00,73.9,45.3,30.10,NNW,346,2.7,2.7,36,0.00,,CLR,0.00,VWS V14.01,2013-08-19 21:32:00,
2013-08-19 17:37:00,74.1,46.2,30.10,NNW,346,2.7,2.7,37,0.00,,CLR,0.00,VWS V14.01,2013-08-19 21:37:00,
2013-08-19 17:42:00,74.1,45.5,30.10,NNW,346,2.7,2.7,36,0.00,,CLR,0.00,VWS V14.01,2013-08-19 21:42:00,
2013-08-19 17:47:00,73.8,45.9,30.10,NNW,346,2.7,2.7,37,0.00,,CLR,0.00,VWS V14.01,2013-08-19 21:47:00,
2013-08-19 17:52:00,73.6,45.7,30.10,NNW,346,2.7,2.7,37,0.00,,CLR,0.00,VWS V14.01,2013-08-19 21:52:00,
2013-08-19 17:57:00,73.4,46.3,30.10,NNW,346,2.7,2.7,38,0.00,,CLR,0.00,VWS V14.01,2013-08-19 21:57:00,
2013-08-19 18:02:00,73.4,46.3,30.10,NNW,346,2.7,2.7,38,0.00,,CLR,0.00,VWS V14.01,2013-08-19 22:02:00,
2013-08-19 18:07:00,73.4,46.3,30.10,NNW,346,2.7,2.7,38,0.00,,CLR,0.00,VWS V14.01,2013-08-19 22:07:00,
2013-08-19 18:12:00,73.4,46.3,30.10,SSE,167,0.0,0.0,38,0.00,,CLR,0.00,VWS V14.01,2013-08-19 22:12:00,
2013-08-19 18:17:00,73.2,46.1,30.10,SSE,167,0.0,0.0,38,0.00,,CLR,0.00,VWS V14.01,2013-08-19 22:17:00,
2013-08-19 18:22:00,72.5,45.5,30.10,SSE,167,0.0,0.0,38,0.00,,CLR,0.00,VWS V14.01,2013-08-19 22:22:00,
2013-08-19 18:27:00,72.5,45.5,30.10,SSE,167,0.0,0.0,38,0.00,,CLR,0.00,VWS V14.01,2013-08-19 22:27:00,
2013-08-19 18:32:00,72.0,46.3,30.10,SSE,167,0.0,0.0,40,0.00,,CLR,0.00,VWS V14.01,2013-08-19 22:32:00,
2013-08-19 18:37:00,71.6,46.7,30.10,SSE,167,0.0,0.0,41,0.00,,CLR,0.00,VWS V14.01,2013-08-19 22:37:00,
2013-08-19 18:42:00,71.4,46.5,30.10,SSE,167,0.0,0.0,41,0.00,,CLR,0.00,VWS V14.01,2013-08-19 22:42:00,
2013-08-19 18:47:00,71.2,47.0,30.10,NNW,337,0.0,0.0,42,0.00,,CLR,0.00,VWS V14.01,2013-08-19 22:47:00,
2013-08-19 18:52:00,71.2,47.0,30.10,NNW,337,0.0,0.0,42,0.00,,CLR,0.00,VWS V14.01,2013-08-19 22:52:00,
2013-08-19 18:57:00,70.7,46.5,30.10,NNW,337,0.0,0.0,42,0.00,,CLR,0.00,VWS V14.01,2013-08-19 22:57:00,
2013-08-19 19:02:00,70.3,46.8,30.10,NNW,337,0.0,0.0,43,0.00,,CLR,0.00,VWS V14.01,2013-08-19 23:02:00,
2013-08-19 19:07:00,70.0,46.5,30.10,NNW,337,0.0,0.0,43,0.00,,CLR,0.00,VWS V14.01,2013-08-19 23:07:00,
2013-08-19 19:12:00,69.6,46.8,30.10,NNW,337,0.0,0.0,44,0.00,,CLR,0.00,VWS V14.01,2013-08-19 23:12:00,
2013-08-19 19:17:00,69.1,46.9,30.10,North,353,0.0,0.0,45,0.00,,CLR,0.00,VWS V14.01,2013-08-19 23:17:00,
2013-08-19 19:22:00,68.4,47.4,30.10,North,353,0.0,0.0,47,0.00,,CLR,0.00,VWS V14.01,2013-08-19 23:22:00,
2013-08-19 19:27:00,68.0,47.6,30.10,North,353,0.0,0.0,48,0.00,,CLR,0.00,VWS V14.01,2013-08-19 23:27:00,
2013-08-19 19:32:00,67.5,47.7,30.10,North,353,0.0,0.0,49,0.00,,CLR,0.00,VWS V14.01,2013-08-19 23:32:00,
2013-08-19 19:37:00,66.6,47.4,30.10,North,353,0.0,0.0,50,0.00,,CLR,0.00,VWS V14.01,2013-08-19 23:37:00,
2013-08-19 19:42:00,66.4,47.2,30.10,North,353,0.0,0.0,50,0.00,,CLR,0.00,VWS V14.01,2013-08-19 23:42:00,
2013-08-19 19:47:00,65.5,47.9,30.10,North,353,0.0,0.0,53,0.00,,CLR,0.00,VWS V14.01,2013-08-19 23:47:00,
2013-08-19 19:52:00,65.3,48.2,30.10,North,353,0.0,0.0,54,0.00,,CLR,0.00,VWS V14.01,2013-08-19 23:52:00,
2013-08-19 19:57:00,64.8,48.2,30.10,North,353,0.0,0.0,55,0.00,,CLR,0.00,VWS V14.01,2013-08-19 23:57:00,
2013-08-19 20:02:00,64.8,48.2,30.10,North,353,0.0,0.0,55,0.00,,CLR,0.00,VWS V14.01,2013-08-20 00:02:00,
2013-08-19 20:08:00,64.2,48.7,30.10,North,353,0.0,0.0,57,0.00,,CLR,0.00,VWS V14.01,2013-08-20 00:08:00,
2013-08-19 20:13:00,64.2,48.7,30.10,North,353,0.0,0.0,57,0.00,,CLR,0.00,VWS V14.01,2013-08-20 00:13:00,
2013-08-19 20:18:00,63.3,48.8,30.10,North,353,0.0,0.0,59,0.00,,CLR,0.00,VWS V14.01,2013-08-20 00:18:00,
2013-08-19 20:23:00,62.6,49.0,30.10,North,353,0.0,0.0,61,0.00,,CLR,0.00,VWS V14.01,2013-08-20 00:23:00,
2013-08-19 20:28:00,62.6,49.0,30.10,North,353,0.0,0.0,61,0.00,,CLR,0.00,VWS V14.01,2013-08-20 00:28:00,
2013-08-19 20:33:00,61.9,49.2,30.10,North,353,0.0,0.0,63,0.00,,CLR,0.00,VWS V14.01,2013-08-20 00:33:00,
2013-08-19 20:38:00,61.7,49.4,30.10,North,353,0.0,0.0,64,0.00,,CLR,0.00,VWS V14.01,2013-08-20 00:38:00,
2013-08-19 20:43:00,61.3,49.5,30.10,North,353,0.0,0.0,65,0.00,,CLR,0.00,VWS V14.01,2013-08-20 00:43:00,
2013-08-19 20:48:00,61.0,49.5,30.10,North,353,0.0,0.0,66,0.00,,CLR,0.00,VWS V14.01,2013-08-20 00:48:00,
2013-08-19 20:53:00,60.8,49.4,30.10,North,353,0.0,0.0,66,0.00,,CLR,0.00,VWS V14.01,2013-08-20 00:53:00,
2013-08-19 20:58:00,60.4,49.8,30.13,North,353,0.0,0.0,68,0.00,,CLR,0.00,VWS V14.01,2013-08-20 00:58:00,
2013-08-19 21:03:00,60.1,49.5,30.13,North,353,0.0,0.0,68,0.00,,CLR,0.00,VWS V14.01,2013-08-20 01:03:00,
2013-08-19 21:08:00,59.9,49.7,30.13,North,353,0.0,0.0,69,0.00,,CLR,0.00,VWS V14.01,2013-08-20 01:08:00,
2013-08-19 21:13:00,59.5,49.8,30.13,North,353,0.0,0.0,70,0.00,,CLR,0.00,VWS V14.01,2013-08-20 01:13:00,
2013-08-19 21:18:00,59.4,49.6,30.13,North,353,0.0,0.0,70,0.00,,CLR,0.00,VWS V14.01,2013-08-20 01:18:00,
2013-08-19 21:23:00,59.0,49.2,30.13,North,353,0.0,0.0,70,0.00,,CLR,0.00,VWS V14.01,2013-08-20 01:23:00,
2013-08-19 21:28:00,58.8,49.5,30.13,North,353,0.0,0.0,71,0.00,,CLR,0.00,VWS V14.01,2013-08-20 01:28:00,
2013-08-19 21:33:00,58.6,49.3,30.13,North,353,0.0,0.0,71,0.00,,CLR,0.00,VWS V14.01,2013-08-20 01:33:00,
2013-08-19 21:38:00,58.3,49.3,30.13,North,353,0.0,0.0,72,0.00,,CLR,0.00,VWS V14.01,2013-08-20 01:38:00,
2013-08-19 21:43:00,58.1,49.5,30.13,North,353,0.0,0.0,73,0.00,,CLR,0.00,VWS V14.01,2013-08-20 01:43:00,
2013-08-19 21:48:00,57.9,49.3,30.13,North,353,0.0,0.0,73,0.00,,CLR,0.00,VWS V14.01,2013-08-20 01:48:00,
2013-08-19 21:53:00,57.9,49.3,30.13,North,353,0.0,0.0,73,0.00,,CLR,0.00,VWS V14.01,2013-08-20 01:53:00,
2013-08-19 21:58:00,57.6,49.3,30.13,North,353,0.0,0.0,74,0.00,,CLR,0.00,VWS V14.01,2013-08-20 01:58:00,
2013-08-19 22:03:00,57.6,49.3,30.13,North,353,0.0,0.0,74,0.00,,CLR,0.00,VWS V14.01,2013-08-20 02:03:00,
2013-08-19 22:08:00,57.2,49.0,30.13,North,353,0.0,0.0,74,0.00,,CLR,0.00,VWS V14.01,2013-08-20 02:08:00,
2013-08-19 22:13:00,56.8,49.0,30.13,North,353,0.0,0.0,75,0.00,,CLR,0.00,VWS V14.01,2013-08-20 02:13:00,
2013-08-19 22:18:00,56.8,49.4,30.13,North,353,0.0,0.0,76,0.00,,CLR,0.00,VWS V14.01,2013-08-20 02:18:00,
2013-08-19 22:23:00,56.7,49.2,30.13,North,353,0.0,0.0,76,0.00,,CLR,0.00,VWS V14.01,2013-08-20 02:23:00,
2013-08-19 22:28:00,56.7,49.2,30.13,North,353,0.0,0.0,76,0.00,,CLR,0.00,VWS V14.01,2013-08-20 02:28:00,
2013-08-19 22:33:00,56.3,49.2,30.13,North,353,0.0,0.0,77,0.00,,CLR,0.00,VWS V14.01,2013-08-20 02:33:00,
2013-08-19 22:38:00,56.1,49.4,30.13,North,353,0.0,0.0,78,0.00,,CLR,0.00,VWS V14.01,2013-08-20 02:38:00,
2013-08-19 22:43:00,56.1,49.4,30.13,North,353,0.0,0.0,78,0.00,,CLR,0.00,VWS V14.01,2013-08-20 02:43:00,
2013-08-19 22:48:00,56.1,49.4,30.13,North,353,0.0,0.0,78,0.00,,CLR,0.00,VWS V14.01,2013-08-20 02:48:00,
2013-08-19 22:53:00,56.1,49.4,30.13,North,353,0.0,0.0,78,0.00,,CLR,0.00,VWS V14.01,2013-08-20 02:53:00,
2013-08-19 22:58:00,56.1,49.4,30.13,North,353,0.0,0.0,78,0.00,,CLR,0.00,VWS V14.01,2013-08-20 02:58:00,
2013-08-19 23:03:00,55.6,49.2,30.13,North,353,0.0,0.0,79,0.00,,CLR,0.00,VWS V14.01,2013-08-20 03:03:00,
2013-08-19 23:08:00,55.4,49.0,30.13,North,353,0.0,0.0,79,0.00,,CLR,0.00,VWS V14.01,2013-08-20 03:08:00,
2013-08-19 23:13:00,55.2,49.2,30.13,North,353,0.0,0.0,80,0.00,,CLR,0.00,VWS V14.01,2013-08-20 03:13:00,
2013-08-19 23:18:00,55.2,49.2,30.13,North,353,0.0,0.0,80,0.00,,CLR,0.00,VWS V14.01,2013-08-20 03:18:00,
2013-08-19 23:23:00,54.9,48.8,30.13,North,353,0.0,0.0,80,0.00,,CLR,0.00,VWS V14.01,2013-08-20 03:23:00,
2013-08-19 23:28:00,54.9,49.2,30.13,North,353,0.0,0.0,81,0.00,,CLR,0.00,VWS V14.01,2013-08-20 03:28:00,
2013-08-19 23:33:00,54.7,49.0,30.13,North,353,0.0,0.0,81,0.00,,CLR,0.00,VWS V14.01,2013-08-20 03:33:00,
2013-08-19 23:38:00,54.5,48.8,30.13,North,353,0.0,0.0,81,0.00,,CLR,0.00,VWS V14.01,2013-08-20 03:38:00,
2013-08-19 23:43:00,54.5,48.8,30.13,North,353,0.0,0.0,81,0.00,,,0.00,VWS V14.01,2013-08-20 03:43:00,
2013-08-19 23:48:00,54.3,49.0,30.13,North,353,0.0,0.0,82,0.00,,,0.00,VWS V14.01,2013-08-20 03:48:00,
2013-08-19 23:54:00,54.3,49.0,30.13,North,353,0.0,0.0,82,0.00,,,0.00,VWS V14.01,2013-08-20 03:54:00,
2013-08-19 23:59:00,54.1,48.8,30.13,North,353,0.0,0.0,82,0.00,,,0.00,VWS V14.01,2013-08-20 03:59:00,